Aviation Digital Data Service (ADDS)

Output produced by METARs form (0427 UTC 19 January 2017)
found at http://aviationweather.gov/adds/metars/
 
KBOS 190305Z 1903/2006 36008KT 3SM -DZ BR OVC005 
     FM190600 03004KT 3SM BR OVC008 
     FM191100 27004KT 3SM BR OVC015 
     FM191300 27005KT 5SM BR OVC025 
     FM191500 28005KT P6SM BKN040 
     FM192100 32005KT P6SM SCT150